Time;durP1;ratioP1;P1;durP2;ratioP2;P2;SDS_P1;SDS_P2;PMS_P1;PMS_P2;Temp;Humidity;BMP_temperature;BMP_pressure;BME280_temperature;BME280_humidity;BME280_pressure;Samples;Min_cycle;Max_cycle;Signal;HPM_P1;HPM_P2
2024/03/27 00:02:06;;;;;;;3.83;2.10;;;;;;;19.64;40.42;98325.84;5033538;28;20134;-64
2024/03/27 00:04:32;;;;;;;3.33;1.33;;;;;;;19.66;40.44;98318.25;5017011;28;20030;-64
2024/03/27 00:06:57;;;;;;;7.60;1.33;;;;;;;19.65;39.68;98308.47;5033454;28;20052;-64
2024/03/27 00:09:23;;;;;;;4.47;1.60;;;;;;;19.67;39.89;98309.88;5033360;28;20030;-64
2024/03/27 00:11:50;;;;;;;3.17;1.45;;;;;;;19.64;39.56;98298.69;5033321;28;20041;-64
2024/03/27 00:14:18;;;;;;;5.72;1.50;;;;;;;19.67;39.48;98293.59;5016861;28;20048;-64
2024/03/27 00:16:44;;;;;;;6.55;2.35;;;;;;;19.66;39.74;98297.34;5032993;28;20045;-64
2024/03/27 00:19:10;;;;;;;2.53;1.65;;;;;;;19.67;40.63;98290.03;5015743;28;20038;-64
2024/03/27 00:21:36;;;;;;;4.60;1.42;;;;;;;19.59;40.27;98285.03;5016506;28;20053;-64
2024/03/27 00:24:03;;;;;;;4.93;1.63;;;;;;;19.62;39.81;98284.53;5016722;28;20108;-64
2024/03/27 00:26:32;;;;;;;5.88;1.65;;;;;;;19.60;40.48;98286.66;5034348;28;20493;-64
2024/03/27 00:28:57;;;;;;;2.00;1.17;;;;;;;19.59;40.43;98290.47;5016836;28;20034;-64
2024/03/27 00:31:24;;;;;;;7.97;2.05;;;;;;;19.57;40.00;98287.19;5032941;28;20038;-64
2024/03/27 00:33:49;;;;;;;9.15;1.48;;;;;;;19.52;40.29;98285.19;5016349;28;20041;-64
2024/03/27 00:36:15;;;;;;;2.35;1.55;;;;;;;19.52;39.94;98284.38;5032778;28;20037;-64
2024/03/27 00:38:41;;;;;;;5.03;1.67;;;;;;;19.50;40.09;98284.63;5032880;28;20164;-64
2024/03/27 00:41:07;;;;;;;8.73;1.45;;;;;;;19.47;40.18;98287.00;5016370;28;20096;-64
2024/03/27 00:43:32;;;;;;;3.42;1.60;;;;;;;19.48;39.77;98292.22;5032772;28;20116;-64
2024/03/27 00:46:02;;;;;;;2.00;1.40;;;;;;;19.44;40.37;98285.63;5032536;28;20053;-64
2024/03/27 00:48:27;;;;;;;2.30;1.58;;;;;;;19.43;40.21;98280.44;5032618;28;20072;-64
2024/03/27 00:50:53;;;;;;;3.00;1.55;;;;;;;19.45;40.20;98275.59;5032531;28;20061;-64
2024/03/27 00:53:18;;;;;;;3.45;1.40;;;;;;;19.45;40.74;98281.00;4999686;28;20048;-64
2024/03/27 00:55:56;;;;;;;3.38;1.42;;;;;;;19.41;40.62;98269.00;5015699;28;20544;-64
2024/03/27 00:58:21;;;;;;;3.45;1.40;;;;;;;19.40;40.27;98275.50;5033228;28;20042;-64
2024/03/27 01:00:47;;;;;;;5.05;1.65;;;;;;;19.38;39.98;98277.59;5032287;28;20037;-64
2024/03/27 01:03:13;;;;;;;4.97;1.50;;;;;;;19.35;40.48;98283.53;5032753;28;20108;-64
2024/03/27 01:05:39;;;;;;;4.38;1.75;;;;;;;19.29;40.96;98284.53;5032689;28;20037;-64
2024/03/27 01:08:05;;;;;;;7.35;1.80;;;;;;;19.26;40.32;98276.88;5016391;28;20032;-64
2024/03/27 01:10:31;;;;;;;5.90;1.30;;;;;;;19.26;40.68;98274.16;5016160;28;20033;-64
2024/03/27 01:12:56;;;;;;;6.70;2.22;;;;;;;19.27;40.51;98281.22;5015872;28;20033;-64
2024/03/27 01:15:22;;;;;;;3.38;1.65;;;;;;;19.22;40.37;98273.84;5033340;28;20041;-64
2024/03/27 01:17:48;;;;;;;5.03;1.73;;;;;;;19.24;40.81;98276.28;4999210;28;20060;-64
2024/03/27 01:20:16;;;;;;;7.78;1.50;;;;;;;19.22;40.77;98265.69;5015689;28;20049;-64
2024/03/27 01:22:41;;;;;;;3.30;1.60;;;;;;;19.22;40.83;98273.00;5032021;28;20056;-64
2024/03/27 01:25:08;;;;;;;2.95;1.52;;;;;;;19.19;40.44;98269.72;5032086;28;20501;-64
2024/03/27 01:27:34;;;;;;;6.65;1.73;;;;;;;19.19;40.51;98261.59;5032171;28;20033;-64
2024/03/27 01:30:00;;;;;;;6.05;2.55;;;;;;;19.16;40.70;98256.66;5015552;28;20056;-64
2024/03/27 01:32:26;;;;;;;5.25;2.38;;;;;;;19.17;41.15;98250.16;5015286;28;20072;-65
2024/03/27 01:34:52;;;;;;;3.03;1.42;;;;;;;19.14;41.08;98247.94;5015568;28;20040;-64
2024/03/27 01:37:18;;;;;;;5.35;1.73;;;;;;;19.12;40.93;98239.19;5031731;28;20057;-64
2024/03/27 01:39:44;;;;;;;2.25;1.38;;;;;;;19.12;40.81;98239.19;5031924;28;20520;-64
2024/03/27 01:42:10;;;;;;;2.35;1.50;;;;;;;19.13;41.29;98242.75;5031671;28;20067;-65
2024/03/27 01:44:35;;;;;;;4.72;1.10;;;;;;;19.11;40.45;98237.56;5031821;28;20440;-64
2024/03/27 01:47:01;;;;;;;5.38;1.98;;;;;;;19.08;40.92;98239.97;5032823;28;20489;-64
2024/03/27 01:49:26;;;;;;;5.30;1.70;;;;;;;19.09;41.62;98242.44;5031741;28;20037;-64
2024/03/27 01:51:52;;;;;;;2.75;1.73;;;;;;;19.07;40.96;98236.41;5031761;28;20037;-64
2024/03/27 01:54:18;;;;;;;3.03;1.40;;;;;;;19.07;41.56;98238.31;5031105;28;20048;-64
2024/03/27 01:56:45;;;;;;;5.82;2.30;;;;;;;19.03;41.32;98243.41;5031550;28;20041;-64
2024/03/27 01:59:11;;;;;;;4.68;1.70;;;;;;;19.05;41.26;98248.59;5015119;28;20040;-64
2024/03/27 02:01:37;;;;;;;4.95;1.95;;;;;;;19.05;41.43;98244.00;4998864;28;20505;-64
2024/03/27 02:04:02;;;;;;;8.95;2.70;;;;;;;19.03;41.11;98248.84;5031607;28;20041;-64
2024/03/27 02:06:28;;;;;;;5.72;2.28;;;;;;;19.05;41.18;98257.56;4998706;28;20042;-64
2024/03/27 02:08:54;;;;;;;4.55;1.45;;;;;;;19.02;41.97;98252.63;5031505;28;20048;-64
2024/03/27 02:11:19;;;;;;;1.77;1.42;;;;;;;19.00;41.60;98248.50;5031447;28;20041;-65
2024/03/27 02:13:45;;;;;;;4.38;1.83;;;;;;;19.04;41.88;98260.50;5014963;28;20079;-64
2024/03/27 02:16:12;;;;;;;5.07;1.73;;;;;;;19.03;41.66;98254.28;5032646;28;20029;-64
2024/03/27 02:18:37;;;;;;;4.75;1.50;;;;;;;19.03;41.91;98257.00;5014938;28;20459;-64
2024/03/27 02:21:03;;;;;;;0.90;0.85;;;;;;;19.05;41.46;98245.88;5015191;28;20120;-64
2024/03/27 02:23:34;;;;;;;5.22;2.00;;;;;;;19.01;42.37;98245.53;5032637;28;20037;-64
2024/03/27 02:26:06;;;;;;;3.58;1.52;;;;;;;18.98;41.51;98235.19;5015060;28;20071;-64
2024/03/27 02:28:31;;;;;;;1.85;0.90;;;;;;;19.00;41.77;98243.09;4998581;28;20116;-64
2024/03/27 02:30:57;;;;;;;2.95;0.45;;;;;;;18.98;42.09;98237.88;5014808;28;20163;-64
2024/03/27 02:33:22;;;;;;;0.30;0.17;;;;;;;19.00;42.10;98251.22;5031313;28;20052;-64
2024/03/27 02:35:48;;;;;;;0.20;0.10;;;;;;;18.96;41.96;98248.16;5032732;28;20030;-64
2024/03/27 02:38:13;;;;;;;0.20;0.20;;;;;;;18.96;43.09;98239.22;5014890;28;20087;-64
2024/03/27 02:40:39;;;;;;;0.98;0.10;;;;;;;18.97;42.37;98238.97;5034164;28;20049;-65
2024/03/27 02:43:04;;;;;;;0.88;0.20;;;;;;;19.01;41.97;98250.97;5016841;28;20045;-64
2024/03/27 02:45:29;;;;;;;0.10;0.10;;;;;;;19.02;41.88;98246.38;5036046;28;20087;-64
2024/03/27 02:47:55;;;;;;;0.13;0.13;;;;;;;19.03;42.26;98248.84;5035795;28;20041;-64
2024/03/27 02:50:21;;;;;;;0.77;0.10;;;;;;;19.03;41.85;98243.41;5018513;28;20037;-64
2024/03/27 02:52:46;;;;;;;1.10;0.30;;;;;;;19.02;41.95;98230.09;5035955;28;20112;-64
2024/03/27 02:55:12;;;;;;;0.73;0.28;;;;;;;19.03;42.34;98238.00;5018479;28;20039;-64
2024/03/27 02:57:37;;;;;;;2.25;0.20;;;;;;;19.01;42.05;98239.31;5017895;28;20084;-64
2024/03/27 03:00:07;;;;;;;0.28;0.28;;;;;;;19.01;41.85;98247.44;5018423;28;20120;-64
2024/03/27 03:02:33;;;;;;;0.45;0.20;;;;;;;18.99;41.70;98258.53;5035778;28;20041;-64
2024/03/27 03:04:58;;;;;;;1.75;0.28;;;;;;;18.94;41.90;98249.50;5034651;28;20041;-64
2024/03/27 03:07:24;;;;;;;1.75;0.28;;;;;;;18.91;42.55;98258.13;5001835;28;20033;-64
2024/03/27 03:09:49;;;;;;;1.05;0.30;;;;;;;18.85;42.06;98251.78;5034602;28;20432;-66
2024/03/27 03:12:14;;;;;;;0.20;0.20;;;;;;;18.81;42.38;98256.06;5035720;28;20120;-65
2024/03/27 03:14:40;;;;;;;0.28;0.28;;;;;;;18.81;42.03;98256.06;5018222;28;20025;-64
2024/03/27 03:17:05;;;;;;;0.30;0.30;;;;;;;18.80;41.64;98259.84;5034538;28;20068;-64
2024/03/27 03:19:31;;;;;;;0.57;0.40;;;;;;;18.77;42.28;98263.03;5017895;28;20030;-64
2024/03/27 03:21:56;;;;;;;0.20;0.20;;;;;;;18.76;42.00;98260.59;5034423;28;20044;-65
2024/03/27 03:24:21;;;;;;;0.30;0.30;;;;;;;18.76;41.90;98258.66;5034102;28;20463;-64
2024/03/27 03:26:47;;;;;;;1.17;0.32;;;;;;;18.75;42.29;98262.47;5035437;28;20071;-65
2024/03/27 03:29:13;;;;;;;0.20;0.20;;;;;;;18.73;42.00;98256.47;5034117;28;20497;-64
2024/03/27 03:31:38;;;;;;;0.63;0.40;;;;;;;18.68;42.32;98240.09;5034291;28;20041;-64
2024/03/27 03:34:04;;;;;;;0.40;0.30;;;;;;;18.70;42.34;98243.41;5034151;28;20042;-64
2024/03/27 03:36:29;;;;;;;1.85;0.20;;;;;;;18.66;42.37;98235.97;5034805;28;20037;-64
2024/03/27 03:38:55;;;;;;;0.30;0.30;;;;;;;18.61;41.57;98234.00;5034129;28;20128;-64
2024/03/27 03:41:20;;;;;;;1.15;0.25;;;;;;;18.60;42.05;98235.06;5034116;28;20030;-64
2024/03/27 03:43:46;;;;;;;0.20;0.20;;;;;;;18.58;41.99;98235.31;5035232;28;20095;-64
2024/03/27 03:46:11;;;;;;;0.28;0.25;;;;;;;18.57;42.05;98233.66;5033801;28;20041;-64
2024/03/27 03:48:37;;;;;;;0.35;0.30;;;;;;;18.55;41.92;98224.13;5034978;28;20041;-64
2024/03/27 03:51:02;;;;;;;0.57;0.25;;;;;;;18.55;42.11;98230.38;5017252;28;20040;-64
2024/03/27 03:53:28;;;;;;;0.17;0.17;;;;;;;18.50;42.07;98216.75;5017157;28;20124;-64
2024/03/27 03:55:53;;;;;;;0.68;0.60;;;;;;;18.50;41.53;98211.31;5033409;28;20092;-64
2024/03/27 03:58:19;;;;;;;0.17;0.17;;;;;;;18.51;41.92;98217.53;5033747;28;20041;-64
2024/03/27 04:00:51;;;;;;;7.03;0.30;;;;;;;18.47;41.70;98219.91;5016926;28;20033;-64
2024/03/27 04:03:16;;;;;;;0.85;0.28;;;;;;;18.46;41.74;98226.38;5033492;28;20041;-64
2024/03/27 04:05:42;;;;;;;0.30;0.20;;;;;;;18.42;41.32;98219.00;5016912;28;20034;-64
2024/03/27 04:08:07;;;;;;;0.20;0.20;;;;;;;18.36;42.00;98214.53;5033466;28;20117;-64
2024/03/27 04:10:44;;;;;;;0.43;0.20;;;;;;;18.32;41.38;98221.50;5017035;28;20046;-64
2024/03/27 04:13:09;;;;;;;0.52;0.38;;;;;;;18.29;41.41;98216.56;5017002;28;20051;-64
2024/03/27 04:15:42;;;;;;;0.20;0.20;;;;;;;18.27;41.28;98216.81;5016815;28;20025;-64
2024/03/27 04:18:08;;;;;;;0.38;0.35;;;;;;;18.26;41.83;98212.44;5016911;28;20409;-64
2024/03/27 04:20:34;;;;;;;0.70;0.30;;;;;;;18.22;41.62;98207.78;5017009;28;20036;-64
2024/03/27 04:23:00;;;;;;;0.47;0.35;;;;;;;18.18;41.92;98212.84;5033492;28;20495;-64
2024/03/27 04:25:25;;;;;;;1.80;0.40;;;;;;;18.13;41.53;98220.06;5000491;28;20497;-64
2024/03/27 04:27:51;;;;;;;1.70;0.30;;;;;;;18.10;41.39;98225.94;5000105;28;20046;-64
2024/03/27 04:30:19;;;;;;;0.25;0.25;;;;;;;18.07;41.93;98234.56;5032970;28;20029;-64
2024/03/27 04:32:45;;;;;;;0.57;0.57;;;;;;;18.01;41.52;98226.34;5032867;28;20501;-64
2024/03/27 04:35:10;;;;;;;0.70;0.50;;;;;;;17.99;41.70;98239.31;5033123;28;20117;-64
2024/03/27 04:37:36;;;;;;;0.93;0.50;;;;;;;17.98;41.42;98245.78;5016383;28;20045;-64
2024/03/27 04:40:11;;;;;;;0.60;0.50;;;;;;;17.94;41.73;98250.03;5032851;28;20041;-64
2024/03/27 04:42:40;;;;;;;0.40;0.40;;;;;;;17.95;41.24;98257.09;5034057;28;20128;-64
2024/03/27 04:45:07;;;;;;;0.52;0.43;;;;;;;17.92;41.97;98267.59;5016161;28;20156;-64
2024/03/27 04:47:34;;;;;;;0.40;0.40;;;;;;;17.95;42.36;98280.66;5033983;28;20038;-64
2024/03/27 04:50:00;;;;;;;0.50;0.50;;;;;;;17.93;42.35;98280.91;5033940;28;20116;-64
2024/03/27 04:52:25;;;;;;;0.47;0.47;;;;;;;17.92;41.34;98298.19;4999974;28;20057;-64
2024/03/27 04:54:51;;;;;;;2.50;0.50;;;;;;;17.85;41.98;98288.56;5016007;28;20041;-64
2024/03/27 04:57:16;;;;;;;0.40;0.40;;;;;;;17.79;41.67;98284.91;5033449;28;20050;-64
2024/03/27 04:59:42;;;;;;;0.35;0.35;;;;;;;17.82;42.00;98297.16;5016200;28;20063;-64
2024/03/27 05:02:07;;;;;;;0.70;0.40;;;;;;;17.80;42.35;98291.16;5016449;28;20065;-64
2024/03/27 05:04:33;;;;;;;0.30;0.30;;;;;;;17.82;41.95;98294.44;5032719;28;20025;-66
2024/03/27 05:06:58;;;;;;;1.08;0.60;;;;;;;17.80;41.96;98275.75;4999620;28;20060;-64
2024/03/27 05:09:24;;;;;;;0.93;0.70;;;;;;;17.82;41.88;98273.63;5016428;28;20029;-64
2024/03/27 05:11:51;;;;;;;0.55;0.50;;;;;;;17.85;41.84;98280.44;5033799;28;20056;-65
2024/03/27 05:14:17;;;;;;;1.33;0.50;;;;;;;17.89;42.17;98285.16;5017119;28;20038;-64
2024/03/27 05:16:43;;;;;;;0.73;0.32;;;;;;;17.91;42.79;98277.59;5032282;28;20049;-64
2024/03/27 05:19:09;;;;;;;0.57;0.57;;;;;;;17.93;42.55;98283.59;5031968;28;20056;-64
2024/03/27 05:21:35;;;;;;;0.82;0.68;;;;;;;17.94;42.69;98279.84;5015291;28;20508;-66
2024/03/27 05:24:00;;;;;;;1.20;0.68;;;;;;;17.97;41.90;98292.91;5015523;28;20026;-64
2024/03/27 05:26:25;;;;;;;0.85;0.55;;;;;;;17.98;42.21;98277.44;5031948;28;20025;-64
2024/03/27 05:28:52;;;;;;;4.00;0.77;;;;;;;17.99;42.60;98279.94;5032046;28;20025;-64
2024/03/27 05:31:17;;;;;;;1.73;0.45;;;;;;;17.97;43.05;98276.66;5015545;28;20017;-64
2024/03/27 05:33:42;;;;;;;1.05;0.70;;;;;;;17.95;42.28;98277.97;5032958;28;20467;-64
2024/03/27 05:36:08;;;;;;;0.75;0.70;;;;;;;17.93;42.47;98280.91;4998999;28;20025;-64
2024/03/27 05:38:33;;;;;;;0.40;0.40;;;;;;;17.94;42.76;98292.56;5031481;28;20516;-68
2024/03/27 05:40:59;;;;;;;1.00;0.80;;;;;;;17.94;43.05;98287.97;5016073;28;20332;-64
2024/03/27 05:43:26;;;;;;;0.73;0.63;;;;;;;17.95;42.64;98300.44;5015706;28;20037;-64
2024/03/27 05:45:52;;;;;;;1.13;0.88;;;;;;;17.93;43.24;98307.16;5015747;28;20028;-64
2024/03/27 05:48:18;;;;;;;0.82;0.68;;;;;;;17.91;42.86;98312.81;5031641;28;20030;-64
2024/03/27 05:50:43;;;;;;;1.05;0.90;;;;;;;17.90;42.51;98305.75;5031691;28;20055;-64
2024/03/27 05:53:09;;;;;;;1.92;0.90;;;;;;;17.92;42.97;98319.88;4998861;28;20061;-64
2024/03/27 05:55:34;;;;;;;0.90;0.80;;;;;;;17.92;42.67;98310.94;5014813;28;20080;-64
2024/03/27 05:58:00;;;;;;;0.73;0.70;;;;;;;17.94;42.93;98315.06;4998850;28;20409;-64
2024/03/27 06:00:25;;;;;;;3.10;0.90;;;;;;;17.94;43.52;98320.47;5032375;28;20030;-65
2024/03/27 06:02:51;;;;;;;1.38;0.90;;;;;;;17.94;43.69;98315.06;5032860;28;20033;-64
2024/03/27 06:05:17;;;;;;;1.08;0.95;;;;;;;17.94;43.18;98312.34;4999264;28;20038;-64
2024/03/27 06:07:42;;;;;;;2.05;0.98;;;;;;;17.95;43.15;98315.88;5015150;28;20044;-64
2024/03/27 06:10:08;;;;;;;0.98;0.88;;;;;;;17.91;43.88;98303.88;5015121;28;20025;-64
2024/03/27 06:12:33;;;;;;;2.38;1.48;;;;;;;17.89;43.89;98324.97;5029015;28;20536;-64
2024/03/27 06:14:59;;;;;;;2.72;2.00;;;;;;;17.84;43.99;98320.22;4995566;28;20168;-64
2024/03/27 06:17:24;;;;;;;2.17;1.80;;;;;;;17.82;43.47;98325.06;5028220;28;20088;-64
2024/03/27 06:19:50;;;;;;;3.92;2.45;;;;;;;17.76;43.72;98328.72;5016955;28;20113;-64
2024/03/27 06:22:16;;;;;;;3.42;2.13;;;;;;;17.68;43.67;98334.50;4999488;28;20033;-64
2024/03/27 06:24:41;;;;;;;4.00;1.67;;;;;;;17.64;43.70;98351.47;5015645;28;20022;-64
2024/03/27 06:27:07;;;;;;;3.08;1.95;;;;;;;17.58;44.62;98338.84;5015430;28;20037;-64
2024/03/27 06:29:32;;;;;;;3.30;1.90;;;;;;;17.52;44.70;98337.06;5016861;28;20046;-64
2024/03/27 06:31:57;;;;;;;3.45;2.17;;;;;;;17.48;44.56;98340.22;5015521;28;20501;-65
2024/03/27 06:34:23;;;;;;;4.38;2.42;;;;;;;17.44;44.78;98351.75;4999040;28;20437;-64
2024/03/27 06:36:48;;;;;;;2.97;2.22;;;;;;;17.40;44.02;98367.63;4998876;28;20125;-64
2024/03/27 06:39:14;;;;;;;2.13;1.75;;;;;;;17.33;45.02;98372.34;5015349;28;20129;-64
2024/03/27 06:41:40;;;;;;;2.35;1.67;;;;;;;17.31;44.82;98373.59;4999016;28;20056;-64
2024/03/27 06:44:06;;;;;;;2.53;1.70;;;;;;;17.28;45.29;98380.31;5015335;28;20389;-66
2024/03/27 06:46:36;;;;;;;2.83;2.00;;;;;;;17.30;44.43;98389.03;5015458;28;20125;-66
2024/03/27 06:49:21;;;;;;;3.08;1.88;;;;;;;17.32;44.56;98391.50;5015480;28;20116;-66
2024/03/27 06:51:50;;;;;;;2.97;1.80;;;;;;;17.29;44.44;98398.22;5016202;28;20113;-65
2024/03/27 06:54:16;;;;;;;3.50;2.03;;;;;;;17.25;45.46;98388.88;5014848;28;20034;-67
2024/03/27 06:56:42;;;;;;;2.80;1.95;;;;;;;17.22;45.01;98396.66;5014708;28;20108;-64
2024/03/27 06:59:07;;;;;;;2.55;2.03;;;;;;;17.22;45.28;98396.66;5015078;28;20147;-64
2024/03/27 07:01:32;;;;;;;2.35;1.65;;;;;;;17.20;45.42;98393.34;5015967;28;20584;-64
2024/03/27 07:03:58;;;;;;;3.38;2.20;;;;;;;17.20;45.37;98390.63;5014906;28;20121;-64
2024/03/27 07:06:23;;;;;;;3.20;2.08;;;;;;;17.15;45.32;98383.22;5015032;28;20100;-63
2024/03/27 07:08:49;;;;;;;2.47;1.92;;;;;;;17.15;45.76;98402.16;5015992;28;20227;-64
2024/03/27 07:11:14;;;;;;;2.30;2.08;;;;;;;17.12;45.93;98401.78;5032028;28;20061;-64
2024/03/27 07:13:40;;;;;;;3.53;1.80;;;;;;;17.11;45.59;98411.00;5016318;28;20042;-64
2024/03/27 07:16:05;;;;;;;4.00;2.40;;;;;;;17.07;45.80;98399.78;5015952;28;20525;-64
2024/03/27 07:18:31;;;;;;;2.28;1.80;;;;;;;17.08;45.99;98408.75;4998391;28;20037;-64
2024/03/27 07:20:57;;;;;;;2.90;1.95;;;;;;;17.11;46.15;98411.00;5015346;28;20045;-64
2024/03/27 07:23:23;;;;;;;4.43;2.50;;;;;;;17.10;45.91;98412.03;4998564;28;20046;-64
2024/03/27 07:25:49;;;;;;;3.20;1.65;;;;;;;17.13;46.05;98419.69;5014611;28;20064;-64
2024/03/27 07:28:14;;;;;;;4.28;2.47;;;;;;;17.12;46.19;98415.31;5151831;23;20567;-61
2024/03/27 07:30:40;;;;;;;4.35;2.75;;;;;;;17.07;45.32;98415.19;4978780;28;20093;-62
2024/03/27 07:33:06;;;;;;;6.70;2.83;;;;;;;17.07;46.11;98423.31;4985176;28;20060;-62
2024/03/27 07:35:31;;;;;;;8.07;2.80;;;;;;;17.06;45.70;98429.75;4998078;28;20494;-61
2024/03/27 07:37:58;;;;;;;5.80;2.90;;;;;;;17.06;45.59;98416.25;4982635;28;20038;-62
2024/03/27 07:40:26;;;;;;;6.03;2.65;;;;;;;17.08;46.98;98422.25;4982876;28;20034;-63
2024/03/27 07:42:53;;;;;;;4.88;2.80;;;;;;;17.09;45.94;98413.06;4998665;28;20038;-63
2024/03/27 07:45:18;;;;;;;5.60;2.88;;;;;;;17.11;46.36;98406.41;4982331;28;20045;-62
2024/03/27 07:47:44;;;;;;;4.78;2.60;;;;;;;17.15;45.94;98425.69;4997582;28;20034;-63
2024/03/27 07:50:10;;;;;;;4.43;2.72;;;;;;;17.18;46.17;98425.22;4997832;28;20506;-63
2024/03/27 07:52:36;;;;;;;11.20;3.53;;;;;;;17.23;45.65;98428.06;4981438;28;20398;-63
2024/03/27 07:55:02;;;;;;;5.20;2.60;;;;;;;17.26;45.84;98425.72;4997566;28;20042;-62
2024/03/27 07:57:27;;;;;;;5.60;3.58;;;;;;;17.30;45.29;98423.41;5032772;28;20521;-63
2024/03/27 07:59:53;;;;;;;5.75;3.75;;;;;;;17.33;46.20;98417.53;5017025;28;20047;-62
2024/03/27 08:02:18;;;;;;;5.97;3.08;;;;;;;17.37;46.14;98418.69;5000638;28;20064;-62
2024/03/27 08:04:43;;;;;;;5.65;3.88;;;;;;;17.40;45.40;98410.09;5034697;28;20091;-62
2024/03/27 08:07:09;;;;;;;4.22;2.95;;;;;;;17.43;45.90;98415.06;5034528;28;20033;-62
2024/03/27 08:09:34;;;;;;;5.50;3.55;;;;;;;17.40;46.37;98416.34;4984363;28;20433;-63
2024/03/27 08:12:02;;;;;;;7.00;4.07;;;;;;;17.38;45.86;98417.66;5016913;28;20041;-63
2024/03/27 08:14:27;;;;;;;5.25;3.45;;;;;;;17.35;46.09;98420.81;5034413;28;20112;-63
2024/03/27 08:16:53;;;;;;;5.78;3.80;;;;;;;17.32;46.29;98418.56;5000177;28;20653;-62
2024/03/27 08:19:18;;;;;;;4.30;3.30;;;;;;;17.33;45.40;98423.75;5000398;28;20075;-63
2024/03/27 08:21:43;;;;;;;4.88;3.40;;;;;;;17.33;46.03;98425.63;5000235;28;20038;-63
2024/03/27 08:24:09;;;;;;;5.55;3.45;;;;;;;17.29;45.54;98436.09;4983949;28;20091;-63
2024/03/27 08:26:34;;;;;;;8.48;3.20;;;;;;;17.30;45.34;98445.03;5000322;28;20461;-63
2024/03/27 08:29:00;;;;;;;4.88;3.20;;;;;;;17.31;45.42;98454.78;5033913;28;20065;-62
2024/03/27 08:31:25;;;;;;;4.40;3.25;;;;;;;17.26;46.14;98441.97;5013743;28;20173;-63
2024/03/27 08:33:51;;;;;;;3.53;3.13;;;;;;;17.27;45.62;98445.50;5033915;28;20037;-63
2024/03/27 08:36:16;;;;;;;4.03;2.83;;;;;;;17.26;46.41;98447.38;5033942;28;20044;-62
2024/03/27 08:38:41;;;;;;;5.13;3.15;;;;;;;17.25;45.46;98445.72;5013132;28;20041;-63
2024/03/27 08:41:07;;;;;;;4.60;2.90;;;;;;;17.28;46.32;98449.88;5028686;28;20033;-63
2024/03/27 08:43:32;;;;;;;5.20;3.30;;;;;;;17.28;45.83;98434.44;5016103;28;20040;-63
2024/03/27 08:45:58;;;;;;;4.03;3.22;;;;;;;17.28;45.46;98433.63;5034076;28;20064;-63
2024/03/27 08:48:24;;;;;;;5.30;3.20;;;;;;;17.30;45.70;98440.47;5016899;28;20441;-63
2024/03/27 08:50:49;;;;;;;4.85;3.45;;;;;;;17.31;46.51;98441.25;5017188;28;20107;-63
2024/03/27 08:53:15;;;;;;;5.32;4.10;;;;;;;17.26;45.53;98430.31;5017338;28;20497;-65
2024/03/27 08:55:41;;;;;;;5.15;3.30;;;;;;;17.25;46.05;98431.38;4994637;28;20026;-63
2024/03/27 08:58:08;;;;;;;6.22;3.97;;;;;;;17.25;45.64;98428.69;4997465;28;20034;-63
2024/03/27 09:00:33;;;;;;;3.35;3.05;;;;;;;17.22;46.43;98429.97;5014099;28;20034;-63
2024/03/27 09:02:59;;;;;;;5.20;3.35;;;;;;;17.23;45.77;98441.59;4997781;28;20506;-63
2024/03/27 09:05:24;;;;;;;6.68;4.05;;;;;;;17.25;45.54;98443.00;4997794;28;20405;-63
2024/03/27 09:07:50;;;;;;;7.10;3.65;;;;;;;17.25;45.34;98455.72;4996479;28;20034;-62
2024/03/27 09:10:15;;;;;;;6.47;3.55;;;;;;;17.20;45.71;98460.97;4996324;28;20038;-62
2024/03/27 09:12:41;;;;;;;4.60;3.50;;;;;;;17.18;45.97;98468.50;5012633;28;20568;-62
2024/03/27 09:15:06;;;;;;;5.35;3.42;;;;;;;17.15;45.84;98468.97;4996328;28;20038;-62
2024/03/27 09:17:32;;;;;;;6.07;4.20;;;;;;;17.15;45.76;98477.09;5000342;28;20034;-62
2024/03/27 09:19:57;;;;;;;5.82;3.88;;;;;;;17.11;46.36;98484.03;5033360;28;20065;-63
2024/03/27 09:22:23;;;;;;;4.97;3.22;;;;;;;17.12;46.42;98496.47;4999194;28;20120;-62
2024/03/27 09:24:49;;;;;;;6.88;4.50;;;;;;;17.05;45.56;98493.03;5015808;28;20067;-62
2024/03/27 09:27:14;;;;;;;7.72;4.22;;;;;;;17.07;46.29;98507.16;4999081;28;20036;-62
2024/03/27 09:29:39;;;;;;;5.93;3.85;;;;;;;17.08;46.27;98503.41;4998928;28;20478;-62
2024/03/27 09:32:07;;;;;;;6.25;3.72;;;;;;;17.08;45.22;98509.66;5015537;28;20038;-62
2024/03/27 09:34:32;;;;;;;7.85;4.25;;;;;;;17.06;46.54;98505.50;4999146;28;20473;-62
2024/03/27 09:36:58;;;;;;;7.15;3.80;;;;;;;17.02;46.31;98509.72;5015498;28;20524;-62
2024/03/27 09:39:24;;;;;;;6.60;3.42;;;;;;;17.03;46.56;98514.09;4998960;28;20108;-62
2024/03/27 09:41:49;;;;;;;6.15;3.30;;;;;;;17.01;46.08;98508.91;4998993;28;20581;-62
2024/03/27 09:44:15;;;;;;;5.72;3.45;;;;;;;17.04;46.33;98513.03;5033007;28;20034;-62
2024/03/27 09:46:41;;;;;;;6.55;3.50;;;;;;;17.05;46.87;98504.69;5015376;28;20033;-63
2024/03/27 09:49:09;;;;;;;5.95;3.42;;;;;;;17.10;45.92;98517.53;4998879;28;20452;-62
2024/03/27 09:51:35;;;;;;;3.92;2.78;;;;;;;17.15;45.71;98504.13;5015219;28;20048;-62
2024/03/27 09:54:05;;;;;;;5.13;2.88;;;;;;;17.18;46.22;98511.81;5015270;28;20037;-62
2024/03/27 09:56:37;;;;;;;6.47;3.60;;;;;;;17.19;45.52;98522.41;5003735;28;20073;-62
2024/03/27 09:59:03;;;;;;;4.00;3.38;;;;;;;17.21;45.67;98508.66;4960019;28;20057;-62
2024/03/27 10:01:30;;;;;;;5.78;3.78;;;;;;;17.19;46.52;98510.75;4960003;28;20065;-62
2024/03/27 10:03:57;;;;;;;6.47;3.85;;;;;;;17.14;45.35;98507.91;4976369;28;20129;-62
2024/03/27 10:06:24;;;;;;;4.88;3.15;;;;;;;17.16;46.20;98501.22;4960113;28;20085;-63
2024/03/27 10:08:49;;;;;;;9.77;3.95;;;;;;;17.15;45.79;98504.97;4960098;28;20498;-62
2024/03/27 10:11:16;;;;;;;4.40;3.22;;;;;;;17.20;45.87;98504.28;4975990;28;20121;-63
2024/03/27 10:13:42;;;;;;;4.18;3.08;;;;;;;17.26;45.50;98508.78;4960167;28;20089;-62
2024/03/27 10:16:11;;;;;;;3.30;2.75;;;;;;;17.28;46.22;98503.97;4959970;28;20038;-63
2024/03/27 10:18:40;;;;;;;4.18;2.92;;;;;;;17.27;45.63;98497.75;4943980;28;20138;-62
2024/03/27 10:21:06;;;;;;;6.57;2.60;;;;;;;17.30;45.41;98507.28;4993407;28;20391;-63
2024/03/27 10:23:31;;;;;;;3.17;2.33;;;;;;;17.33;45.75;98501.41;4993334;28;20030;-62
2024/03/27 10:26:04;;;;;;;4.65;2.50;;;;;;;17.34;45.93;98492.22;4975942;28;20514;-63
2024/03/27 10:28:35;;;;;;;3.38;2.40;;;;;;;17.47;45.95;98513.72;4959311;28;20058;-64
2024/03/27 10:31:04;;;;;;;4.25;2.20;;;;;;;17.54;45.98;98513.63;4975869;28;20042;-62
2024/03/27 10:33:30;;;;;;;2.00;1.52;;;;;;;17.58;45.77;98507.53;4959841;28;20038;-63
2024/03/27 10:35:58;;;;;;;5.07;1.90;;;;;;;17.62;46.09;98521.41;4976016;28;20032;-63
2024/03/27 10:38:23;;;;;;;4.30;1.50;;;;;;;17.63;45.25;98525.78;4943601;28;20498;-66
2024/03/27 10:40:52;;;;;;;4.85;2.00;;;;;;;17.62;45.12;98526.81;4959615;28;20044;-63
2024/03/27 10:43:36;;;;;;;3.95;2.30;;;;;;;17.58;44.83;98536.47;4976068;28;20034;-62
2024/03/27 10:46:02;;;;;;;3.22;1.90;;;;;;;17.61;45.91;98541.44;4959484;28;20114;-63
2024/03/27 10:48:28;;;;;;;2.83;1.83;;;;;;;17.60;45.09;98540.59;4975753;28;20501;-63
2024/03/27 10:50:55;;;;;;;2.90;2.13;;;;;;;17.60;45.69;98545.19;4975877;28;20513;-62
2024/03/27 10:53:21;;;;;;;2.75;2.13;;;;;;;17.61;44.91;98552.28;4943478;28;20030;-62
2024/03/27 10:55:48;;;;;;;2.53;2.05;;;;;;;17.60;45.60;98551.44;4959688;28;20069;-62
2024/03/27 10:58:14;;;;;;;4.18;1.95;;;;;;;17.58;45.63;98553.56;4959306;28;20410;-62
2024/03/27 11:00:39;;;;;;;3.10;2.05;;;;;;;17.57;45.56;98545.66;4975693;28;20041;-63
2024/03/27 11:03:07;;;;;;;4.50;1.50;;;;;;;17.59;45.13;98554.38;4990427;28;20397;-63
2024/03/27 11:05:33;;;;;;;2.63;2.08;;;;;;;17.59;45.43;98551.69;4982427;28;20038;-63
2024/03/27 11:07:59;;;;;;;4.10;2.17;;;;;;;17.59;45.36;98554.38;4998478;28;20586;-63
2024/03/27 11:10:25;;;;;;;7.65;1.88;;;;;;;17.60;44.82;98551.44;4998679;28;20112;-63
2024/03/27 11:12:51;;;;;;;2.42;1.90;;;;;;;17.63;45.58;98556.41;4982190;28;20456;-63
2024/03/27 11:15:17;;;;;;;1.88;1.40;;;;;;;17.64;45.08;98558.06;4998509;28;20030;-62
2024/03/27 11:17:50;;;;;;;3.65;1.73;;;;;;;17.62;44.80;98557.44;4998181;28;20538;-63
2024/03/27 11:20:16;;;;;;;1.45;1.23;;;;;;;17.60;45.55;98556.84;4982112;28;20042;-63
2024/03/27 11:22:46;;;;;;;1.70;1.50;;;;;;;17.61;46.04;98552.28;4998345;28;20038;-62
2024/03/27 11:25:12;;;;;;;2.13;1.60;;;;;;;17.63;45.20;98555.56;4982002;28;20455;-62
2024/03/27 11:27:37;;;;;;;3.25;1.67;;;;;;;17.59;45.30;98554.38;4998114;28;20042;-63
2024/03/27 11:30:04;;;;;;;3.10;1.30;;;;;;;17.56;44.68;98555.66;4998323;28;20488;-62